Time;durP1;ratioP1;P1;durP2;ratioP2;P2;SDS_P1;SDS_P2;PMS_P1;PMS_P2;Temp;Humidity;BMP_temperature;BMP_pressure;BME280_temperature;BME280_humidity;BME280_pressure;Samples;Min_cycle;Max_cycle;Signal;HPM_P1;HPM_P2
2021/03/07 00:00:50;;;;;;;17.37;15.37;;;;;;;-4.81;88.71;99119.78;5005447;28;20228;-69
2021/03/07 00:03:18;;;;;;;17.33;14.53;;;;;;;-5.11;87.78;99114.50;5004236;28;20218;-69
2021/03/07 00:05:45;;;;;;;19.23;16.53;;;;;;;-5.02;88.50;99116.00;5003868;28;20228;-69
2021/03/07 00:08:12;;;;;;;16.30;14.33;;;;;;;-4.96;87.84;99107.22;5005477;28;20251;-70
2021/03/07 00:10:40;;;;;;;16.70;14.90;;;;;;;-5.26;88.18;99110.53;5006383;28;20205;-69
2021/03/07 00:13:10;;;;;;;17.97;14.80;;;;;;;-5.28;88.11;99104.56;5011690;28;20287;-68
2021/03/07 00:15:37;;;;;;;20.30;14.33;;;;;;;-5.36;87.98;99103.91;5007326;28;20213;-70
2021/03/07 00:18:05;;;;;;;19.13;14.27;;;;;;;-5.50;88.11;99108.53;5006210;28;20235;-68
2021/03/07 00:20:32;;;;;;;19.60;15.17;;;;;;;-5.48;89.80;99102.47;5005423;28;20235;-68
2021/03/07 00:22:59;;;;;;;16.17;14.57;;;;;;;-5.55;89.23;99103.50;5003666;28;20344;-68
2021/03/07 00:25:27;;;;;;;16.30;13.83;;;;;;;-5.45;88.59;99101.56;5006139;28;20219;-68
2021/03/07 00:27:54;;;;;;;15.00;13.53;;;;;;;-5.63;90.37;99101.06;5004634;28;20243;-69
2021/03/07 00:30:21;;;;;;;16.10;14.40;;;;;;;-5.63;91.23;99097.66;5008102;28;20220;-69
2021/03/07 00:32:48;;;;;;;16.50;13.20;;;;;;;-5.71;90.55;99090.06;5005159;28;20213;-70
2021/03/07 00:35:15;;;;;;;14.20;12.77;;;;;;;-5.76;90.43;99092.75;5005339;28;20291;-69
2021/03/07 00:37:43;;;;;;;15.50;13.37;;;;;;;-5.66;90.42;99088.22;5005369;28;20229;-68
2021/03/07 00:40:11;;;;;;;17.33;14.23;;;;;;;-5.78;89.87;99089.34;5004806;28;20672;-69
2021/03/07 00:42:41;;;;;;;17.17;13.33;;;;;;;-5.93;91.47;99090.53;5006467;28;20211;-70
2021/03/07 00:45:09;;;;;;;18.63;14.53;;;;;;;-5.98;91.32;99093.25;5008455;28;20196;-69
2021/03/07 00:47:36;;;;;;;24.33;21.37;;;;;;;-6.01;92.95;99090.75;5002923;28;20229;-68
2021/03/07 00:50:06;;;;;;;18.53;16.63;;;;;;;-6.08;92.24;99094.31;5006403;28;20702;-69
2021/03/07 00:52:33;;;;;;;20.93;16.53;;;;;;;-6.13;92.34;99088.41;5003366;28;20209;-69
2021/03/07 00:55:00;;;;;;;16.43;14.83;;;;;;;-6.10;92.70;99078.03;5002847;28;20542;-67
2021/03/07 00:57:27;;;;;;;15.57;14.07;;;;;;;-6.13;93.03;99085.84;5002120;28;20233;-67
2021/03/07 00:59:55;;;;;;;16.43;14.70;;;;;;;-6.17;93.93;99079.03;5007433;28;20217;-70
2021/03/07 01:02:22;;;;;;;16.13;14.43;;;;;;;-6.16;94.61;99086.78;5002942;28;20209;-69
2021/03/07 01:04:49;;;;;;;14.20;12.77;;;;;;;-6.21;95.38;99082.56;5009439;28;20299;-69
2021/03/07 01:07:16;;;;;;;16.23;13.57;;;;;;;-6.28;95.60;99069.81;5003312;28;20235;-68
2021/03/07 01:09:43;;;;;;;17.00;13.97;;;;;;;-6.31;95.92;99069.00;5007116;28;20224;-69
2021/03/07 01:12:10;;;;;;;15.63;13.87;;;;;;;-6.33;96.41;99060.44;5005252;28;20201;-70
2021/03/07 01:14:38;;;;;;;16.93;13.93;;;;;;;-6.37;96.76;99059.69;5004987;28;20204;-69
2021/03/07 01:17:05;;;;;;;16.83;15.23;;;;;;;-6.46;95.35;99058.13;5015471;28;20228;-70
2021/03/07 01:19:33;;;;;;;14.20;12.27;;;;;;;-6.42;94.55;99051.19;5012365;28;20295;-69
2021/03/07 01:22:00;;;;;;;15.97;14.27;;;;;;;-6.41;95.26;99045.97;5009320;28;20255;-67
2021/03/07 01:24:27;;;;;;;17.93;15.13;;;;;;;-6.41;96.24;99040.00;5014087;28;20208;-70
2021/03/07 01:26:54;;;;;;;17.00;15.20;;;;;;;-6.31;94.83;99035.47;5010290;28;20459;-67
2021/03/07 01:29:21;;;;;;;16.57;14.87;;;;;;;-6.30;95.87;99027.72;5012506;28;21112;-69
2021/03/07 01:31:48;;;;;;;16.13;14.47;;;;;;;-6.36;95.73;99029.56;5012354;28;20205;-69
2021/03/07 01:34:17;;;;;;;17.47;14.17;;;;;;;-6.35;95.23;99023.50;5010925;28;20260;-69
2021/03/07 01:36:44;;;;;;;14.83;13.07;;;;;;;-6.42;96.07;99017.66;5010132;28;20238;-68
2021/03/07 01:39:11;;;;;;;15.33;13.40;;;;;;;-6.38;95.19;99016.72;5016532;28;20450;-68
2021/03/07 01:41:38;;;;;;;14.07;12.67;;;;;;;-6.42;96.03;99008.16;5010565;28;20216;-68
2021/03/07 01:44:07;;;;;;;14.63;12.87;;;;;;;-6.38;96.93;99003.81;5015466;28;20205;-69
2021/03/07 01:46:34;;;;;;;14.97;13.43;;;;;;;-6.32;95.61;99000.22;5011614;28;20228;-69
2021/03/07 01:49:01;;;;;;;14.47;13.07;;;;;;;-6.40;95.49;98992.69;5008653;28;20849;-68
2021/03/07 01:51:30;;;;;;;16.13;12.53;;;;;;;-6.34;95.76;98983.94;5016013;28;20439;-68
2021/03/07 01:53:57;;;;;;;14.07;12.33;;;;;;;-6.28;95.49;98976.91;5010079;28;20442;-69
2021/03/07 01:56:24;;;;;;;12.47;11.13;;;;;;;-6.41;95.37;98963.44;5009170;28;20843;-68
2021/03/07 01:58:52;;;;;;;13.13;11.83;;;;;;;-6.39;96.02;98958.25;5006912;28;20435;-68
2021/03/07 02:01:19;;;;;;;16.63;11.87;;;;;;;-6.31;95.85;98953.78;5013215;28;20205;-71
2021/03/07 02:03:51;;;;;;;13.73;11.10;;;;;;;-6.46;96.00;98947.22;5005838;28;20754;-68
2021/03/07 02:06:18;;;;;;;13.17;11.77;;;;;;;-6.59;97.10;98940.63;5003897;28;20211;-68
2021/03/07 02:08:46;;;;;;;12.77;11.03;;;;;;;-6.61;96.48;98934.66;5012773;28;20983;-69
2021/03/07 02:11:13;;;;;;;12.97;11.10;;;;;;;-6.57;95.73;98938.88;5007952;28;20477;-69
2021/03/07 02:13:42;;;;;;;11.93;10.80;;;;;;;-6.70;97.61;98939.13;5009789;28;20444;-68
2021/03/07 02:16:11;;;;;;;13.80;10.43;;;;;;;-6.65;96.46;98927.84;5013807;28;20213;-68
2021/03/07 02:18:39;;;;;;;13.77;12.37;;;;;;;-6.63;97.55;98931.25;5005142;28;21009;-69
2021/03/07 02:21:10;;;;;;;14.57;12.40;;;;;;;-6.70;97.51;98928.81;5013740;28;20444;-70
2021/03/07 02:23:48;;;;;;;13.80;12.07;;;;;;;-6.74;98.09;98919.44;5012948;28;20208;-69
2021/03/07 02:26:15;;;;;;;15.10;13.50;;;;;;;-6.79;98.20;98921.28;5007354;28;20565;-68
2021/03/07 02:28:42;;;;;;;16.33;13.67;;;;;;;-6.86;98.86;98911.97;5015017;28;20251;-69
2021/03/07 02:31:09;;;;;;;16.00;12.53;;;;;;;-6.85;98.53;98909.34;5006291;28;20454;-69
2021/03/07 02:33:38;;;;;;;14.17;12.67;;;;;;;-6.95;98.68;98901.88;5013464;28;20522;-69
2021/03/07 02:36:10;;;;;;;13.20;11.80;;;;;;;-7.01;100.00;98903.69;5014113;28;20209;-69
2021/03/07 02:38:38;;;;;;;13.43;11.87;;;;;;;-7.06;99.43;98899.50;5006706;28;20444;-68
2021/03/07 02:41:08;;;;;;;12.50;11.17;;;;;;;-7.15;100.00;98903.09;5010846;28;20460;-69
2021/03/07 02:43:39;;;;;;;13.10;11.83;;;;;;;-6.97;100.00;98901.88;5013017;28;20827;-68
2021/03/07 02:46:06;;;;;;;12.53;11.43;;;;;;;-7.09;100.00;98895.25;5013699;28;20448;-68
2021/03/07 02:48:35;;;;;;;14.50;12.13;;;;;;;-7.11;100.00;98897.00;5010438;28;20258;-68
2021/03/07 02:51:03;;;;;;;15.20;11.93;;;;;;;-7.09;100.00;98892.66;5009460;28;21123;-69
2021/03/07 02:53:32;;;;;;;13.63;11.97;;;;;;;-7.13;100.00;98885.88;5006928;28;20459;-68
2021/03/07 02:56:00;;;;;;;14.00;11.43;;;;;;;-7.19;100.00;98883.44;5006616;28;20440;-70
2021/03/07 02:58:30;;;;;;;14.00;12.53;;;;;;;-7.19;100.00;98884.31;5014341;28;20467;-68
2021/03/07 03:01:00;;;;;;;15.10;12.07;;;;;;;-7.24;100.00;98886.09;5007742;28;20463;-69
2021/03/07 03:03:30;;;;;;;12.90;11.57;;;;;;;-7.26;100.00;98880.13;5012635;28;20443;-69
2021/03/07 03:05:58;;;;;;;13.43;11.87;;;;;;;-7.25;100.00;98884.41;5008122;28;20216;-69
2021/03/07 03:08:25;;;;;;;14.20;11.03;;;;;;;-7.25;100.00;98884.41;5009008;28;20228;-69
2021/03/07 03:10:54;;;;;;;15.17;12.00;;;;;;;-6.97;100.00;98881.25;5006728;28;20483;-68
2021/03/07 03:13:33;;;;;;;13.63;12.07;;;;;;;-6.94;100.00;98883.78;5001868;28;20467;-69
2021/03/07 03:16:02;;;;;;;12.77;11.50;;;;;;;-6.96;100.00;98884.72;5005804;28;20480;-69
2021/03/07 03:18:30;;;;;;;13.07;11.03;;;;;;;-6.96;100.00;98880.38;5008881;28;20465;-68
2021/03/07 03:20:59;;;;;;;11.47;10.33;;;;;;;-6.98;100.00;98877.84;5011062;28;20456;-68
2021/03/07 03:23:26;;;;;;;12.70;10.93;;;;;;;-6.98;100.00;98877.00;5007752;28;20444;-68
2021/03/07 03:25:53;;;;;;;10.60;9.43;;;;;;;-6.97;100.00;98876.13;5004965;28;20440;-69
2021/03/07 03:28:22;;;;;;;12.57;11.37;;;;;;;-7.00;100.00;98878.75;5011721;28;20230;-69
2021/03/07 03:30:50;;;;;;;11.73;10.50;;;;;;;-6.96;100.00;98874.41;5011266;28;20490;-69
2021/03/07 03:33:17;;;;;;;12.67;11.03;;;;;;;-6.80;99.78;98875.75;5007927;28;20372;-70
2021/03/07 03:35:44;;;;;;;13.03;10.70;;;;;;;-6.90;100.00;98869.09;5014055;28;20204;-68
2021/03/07 03:38:11;;;;;;;13.23;11.97;;;;;;;-7.00;100.00;98869.31;5012108;28;20659;-69
2021/03/07 03:40:38;;;;;;;12.17;10.97;;;;;;;-6.95;99.69;98869.19;5009013;28;21006;-68
2021/03/07 03:43:08;;;;;;;12.87;11.47;;;;;;;-6.99;100.00;98876.16;5010612;28;21043;-68
2021/03/07 03:45:37;;;;;;;11.70;10.50;;;;;;;-7.14;99.89;98871.31;5010163;28;20439;-69
2021/03/07 03:48:08;;;;;;;12.77;11.07;;;;;;;-7.27;100.00;98866.41;5013105;28;20995;-69
2021/03/07 03:50:39;;;;;;;12.37;11.10;;;;;;;-7.33;100.00;98871.69;5006355;28;20515;-69
2021/03/07 03:53:07;;;;;;;11.80;10.53;;;;;;;-7.38;100.00;98867.50;5005853;28;20444;-68
2021/03/07 03:55:35;;;;;;;12.10;10.80;;;;;;;-7.39;100.00;98874.38;5012888;28;20447;-68
2021/03/07 03:58:05;;;;;;;12.67;11.40;;;;;;;-7.44;100.00;98869.31;5009410;28;20476;-68
2021/03/07 04:00:37;;;;;;;12.03;10.73;;;;;;;-7.46;100.00;98875.38;5010474;28;20236;-68
2021/03/07 04:03:04;;;;;;;13.10;11.50;;;;;;;-7.37;100.00;98874.34;5016237;28;20901;-68
2021/03/07 04:05:33;;;;;;;12.77;11.07;;;;;;;-7.42;100.00;98867.56;5004991;28;20448;-68
2021/03/07 04:08:00;;;;;;;12.77;11.47;;;;;;;-7.45;100.00;98871.91;5008260;28;20943;-67
2021/03/07 04:10:28;;;;;;;11.93;10.73;;;;;;;-7.50;100.00;98864.28;5010191;28;20476;-68
2021/03/07 04:12:58;;;;;;;10.77;9.87;;;;;;;-7.56;100.00;98865.25;5007703;28;20451;-68
2021/03/07 04:15:27;;;;;;;13.00;11.60;;;;;;;-7.57;100.00;98862.72;5008295;28;20458;-68
2021/03/07 04:17:56;;;;;;;12.13;10.97;;;;;;;-7.61;100.00;98859.34;5007716;28;20754;-69
2021/03/07 04:20:25;;;;;;;13.53;11.27;;;;;;;-7.54;100.00;98861.78;5013873;28;20832;-69
2021/03/07 04:22:54;;;;;;;12.67;10.80;;;;;;;-7.49;100.00;98865.13;5004666;28;20736;-68
2021/03/07 04:25:21;;;;;;;11.83;10.47;;;;;;;-7.54;100.00;98864.38;5010083;28;20769;-68
2021/03/07 04:27:49;;;;;;;10.90;9.93;;;;;;;-7.53;100.00;98863.50;5012294;28;20606;-69
2021/03/07 04:30:21;;;;;;;11.23;10.03;;;;;;;-7.39;100.00;98868.38;5007886;28;20482;-69
2021/03/07 04:32:48;;;;;;;11.83;10.73;;;;;;;-7.53;100.00;98863.50;5007738;28;20471;-69
2021/03/07 04:35:16;;;;;;;10.20;9.10;;;;;;;-7.60;100.00;98863.63;5012036;28;20443;-68
2021/03/07 04:37:44;;;;;;;11.03;9.97;;;;;;;-7.61;100.00;98861.91;5007834;28;20538;-68
2021/03/07 04:40:13;;;;;;;13.00;11.13;;;;;;;-7.63;100.00;98858.53;5010191;28;20548;-69
2021/03/07 04:42:41;;;;;;;11.30;10.10;;;;;;;-7.57;100.00;98867.88;5011738;28;20310;-67
2021/03/07 04:45:10;;;;;;;13.00;10.23;;;;;;;-7.56;100.00;98870.41;5004069;28;20440;-69
2021/03/07 04:47:38;;;;;;;10.23;9.40;;;;;;;-7.66;100.00;98866.31;5010897;28;20467;-68
2021/03/07 04:50:06;;;;;;;11.37;10.27;;;;;;;-7.69;100.00;98863.78;5009197;28;20571;-68
2021/03/07 04:52:33;;;;;;;10.50;9.37;;;;;;;-7.58;100.00;98868.72;5003909;28;20455;-68
2021/03/07 04:55:00;;;;;;;11.13;10.07;;;;;;;-7.55;100.00;98860.97;5002413;28;20954;-67
2021/03/07 04:57:28;;;;;;;12.70;10.43;;;;;;;-7.50;100.00;98864.28;5007337;28;20252;-69
2021/03/07 04:59:55;;;;;;;12.33;10.20;;;;;;;-7.60;100.00;98863.63;5010831;28;20632;-67
2021/03/07 05:02:22;;;;;;;10.53;9.43;;;;;;;-7.53;100.00;98868.66;5009076;28;20435;-69
2021/03/07 05:04:49;;;;;;;10.00;9.10;;;;;;;-7.63;100.00;98852.50;5012647;28;20444;-69
2021/03/07 05:07:16;;;;;;;10.73;9.60;;;;;;;-7.62;100.00;98844.78;5002259;28;20994;-68
2021/03/07 05:09:43;;;;;;;10.70;9.63;;;;;;;-7.50;100.00;98847.97;5005577;28;20970;-66
2021/03/07 05:12:11;;;;;;;10.70;9.60;;;;;;;-7.33;100.00;98850.22;5001743;28;20454;-68
2021/03/07 05:14:59;;;;;;;10.03;8.93;;;;;;;-7.32;100.00;98846.78;4997539;28;20510;-70
2021/03/07 05:17:27;;;;;;;10.30;8.90;;;;;;;-7.47;100.00;98838.47;4999940;28;21007;-67
2021/03/07 05:19:54;;;;;;;11.23;10.13;;;;;;;-7.56;100.00;98839.50;5005375;28;20835;-69
2021/03/07 05:22:21;;;;;;;11.80;10.27;;;;;;;-7.53;100.00;98830.03;5004392;28;20447;-70
2021/03/07 05:24:48;;;;;;;11.17;9.80;;;;;;;-7.63;100.00;98826.78;5009375;28;20456;-69
2021/03/07 05:27:15;;;;;;;10.87;9.77;;;;;;;-7.65;100.00;98823.38;4998778;28;20474;-68
2021/03/07 05:29:42;;;;;;;10.53;9.17;;;;;;;-7.71;100.00;98832.91;4994410;28;20488;-69
2021/03/07 05:32:10;;;;;;;11.53;10.07;;;;;;;-7.70;100.00;98829.47;4999920;28;20209;-70
2021/03/07 05:34:37;;;;;;;11.33;10.13;;;;;;;-7.74;100.00;98825.25;4999174;28;20459;-69
2021/03/07 05:37:04;;;;;;;10.27;9.20;;;;;;;-7.81;100.00;98827.97;5000901;28;20475;-69
2021/03/07 05:39:31;;;;;;;11.27;10.33;;;;;;;-7.68;100.00;98829.44;5002928;28;20451;-67
2021/03/07 05:41:58;;;;;;;10.87;9.80;;;;;;;-7.79;100.00;98823.63;5002162;28;20451;-69
2021/03/07 05:44:25;;;;;;;10.07;9.00;;;;;;;-7.79;100.00;98823.63;5001631;28;20683;-69
2021/03/07 05:46:52;;;;;;;11.37;10.27;;;;;;;-7.76;100.00;98826.19;5000404;28;21022;-69
2021/03/07 05:49:21;;;;;;;11.83;10.23;;;;;;;-7.89;99.21;98828.97;5006518;28;20616;-69
2021/03/07 05:51:48;;;;;;;10.60;9.07;;;;;;;-7.99;100.00;98819.72;5004343;28;20522;-67
2021/03/07 05:54:16;;;;;;;9.60;8.70;;;;;;;-7.82;100.00;98816.84;5006608;28;20449;-69
2021/03/07 05:56:45;;;;;;;9.37;8.57;;;;;;;-7.89;100.00;98825.56;5002483;28;20586;-70
2021/03/07 05:59:13;;;;;;;10.27;9.00;;;;;;;-7.92;100.00;98816.16;5005885;28;20448;-69
2021/03/07 06:01:39;;;;;;;10.27;9.23;;;;;;;-7.93;100.00;98821.34;5004062;28;20452;-69
2021/03/07 06:04:07;;;;;;;10.20;9.27;;;;;;;-7.96;100.00;98822.22;5007567;28;20451;-68
2021/03/07 06:06:35;;;;;;;9.27;8.40;;;;;;;-7.99;100.00;98828.28;5005600;28;20464;-68
2021/03/07 06:09:26;;;;;;;9.77;8.83;;;;;;;-8.00;100.00;98818.84;5010433;28;20564;-68
2021/03/07 06:11:54;;;;;;;9.97;8.87;;;;;;;-8.00;100.00;98821.44;4999386;28;20439;-67
2021/03/07 06:14:24;;;;;;;11.00;9.90;;;;;;;-7.75;100.00;98823.56;5009052;28;20442;-66
2021/03/07 06:17:05;;;;;;;11.17;10.13;;;;;;;-7.78;100.00;98822.75;5007851;28;21014;-67
2021/03/07 06:19:59;;;;;;;10.23;9.23;;;;;;;-7.82;100.00;98826.28;5010943;28;20742;-68
2021/03/07 06:22:28;;;;;;;9.60;8.67;;;;;;;-7.48;100.00;98828.19;5009235;28;20888;-68
2021/03/07 06:24:55;;;;;;;10.63;9.63;;;;;;;-7.15;99.42;98823.25;5007388;28;20454;-67
2021/03/07 06:27:22;;;;;;;12.90;9.80;;;;;;;-7.08;99.38;98829.13;5009107;28;20470;-67
2021/03/07 06:29:55;;;;;;;13.23;9.53;;;;;;;-6.98;98.27;98825.44;5014922;28;20494;-68
2021/03/07 06:32:22;;;;;;;11.03;9.43;;;;;;;-7.18;98.79;98829.31;5013468;28;20446;-67
2021/03/07 06:34:50;;;;;;;10.23;9.20;;;;;;;-7.19;99.66;98826.75;5009531;28;20543;-68
2021/03/07 06:37:18;;;;;;;11.07;10.00;;;;;;;-7.21;99.55;98820.78;5009610;28;20790;-68
2021/03/07 06:39:47;;;;;;;11.93;9.73;;;;;;;-7.22;99.42;98817.34;5006886;28;20449;-67
2021/03/07 06:42:15;;;;;;;12.93;11.73;;;;;;;-7.15;100.00;98811.22;5011173;28;21010;-68
2021/03/07 06:44:59;;;;;;;10.57;9.63;;;;;;;-7.06;99.50;98817.88;5008841;28;20942;-68
2021/03/07 06:47:28;;;;;;;10.20;8.80;;;;;;;-6.93;100.00;98812.47;5006794;28;20918;-67
2021/03/07 06:50:12;;;;;;;13.20;10.50;;;;;;;-6.88;99.15;98811.47;4999203;28;20240;-69
2021/03/07 06:52:50;;;;;;;11.97;9.53;;;;;;;-6.76;100.00;98814.69;5002408;28;20463;-69
2021/03/07 06:55:18;;;;;;;10.30;9.13;;;;;;;-6.57;99.58;98815.09;5004999;28;21141;-69
2021/03/07 06:57:46;;;;;;;10.37;9.33;;;;;;;-6.49;99.22;98820.91;5004761;28;20352;-67
2021/03/07 07:00:14;;;;;;;10.70;9.50;;;;;;;-6.37;98.60;98816.31;5008690;28;20774;-67
2021/03/07 07:03:04;;;;;;;10.17;9.07;;;;;;;-6.28;97.86;98816.09;5011339;28;20459;-66
2021/03/07 07:05:40;;;;;;;10.53;9.63;;;;;;;-5.77;91.91;98813.94;5004150;28;20659;-68
2021/03/07 07:08:08;;;;;;;10.17;9.17;;;;;;;-5.94;93.40;98807.47;5007868;28;20233;-68
2021/03/07 07:11:02;;;;;;;9.33;8.47;;;;;;;-5.91;93.42;98807.38;5011949;28;20225;-68
2021/03/07 07:13:31;;;;;;;9.97;8.97;;;;;;;-5.76;94.42;98798.38;5005796;28;20204;-68
2021/03/07 07:16:01;;;;;;;9.23;8.20;;;;;;;-5.62;91.88;98799.75;5006490;28;20607;-67
2021/03/07 07:18:29;;;;;;;10.20;8.90;;;;;;;-5.57;93.46;98809.06;5004224;28;20235;-66
2021/03/07 07:20:57;;;;;;;9.50;8.60;;;;;;;-5.30;91.06;98810.91;5008479;28;20208;-67
2021/03/07 07:23:25;;;;;;;10.00;9.10;;;;;;;-5.04;87.52;98809.28;5011986;28;20201;-68
2021/03/07 07:25:52;;;;;;;10.33;8.50;;;;;;;-4.97;87.37;98810.78;5008502;28;20312;-66
2021/03/07 07:28:22;;;;;;;10.03;9.13;;;;;;;-4.88;88.35;98807.09;5013312;28;20234;-67
2021/03/07 07:30:53;;;;;;;9.07;8.17;;;;;;;-4.80;87.42;98805.97;5002088;28;20488;-67
2021/03/07 07:33:30;;;;;;;10.10;8.27;;;;;;;-4.57;86.13;98806.97;5008580;28;20681;-66
2021/03/07 07:35:58;;;;;;;9.93;9.00;;;;;;;-4.39;83.61;98808.13;5008957;28;20215;-69
2021/03/07 07:38:26;;;;;;;15.83;14.07;;;;;;;-4.39;83.62;98800.34;5005753;28;20233;-69
2021/03/07 07:40:54;;;;;;;19.87;16.40;;;;;;;-4.08;81.66;98799.34;5013071;28;20208;-68
2021/03/07 07:43:22;;;;;;;13.37;11.20;;;;;;;-3.90;81.00;98791.84;5007006;28;20671;-68
2021/03/07 07:45:49;;;;;;;11.57;10.37;;;;;;;-3.78;80.74;98790.59;5000449;28;20209;-67
2021/03/07 07:48:34;;;;;;;11.07;9.97;;;;;;;-3.55;78.95;98794.09;5002525;28;20229;-68
2021/03/07 07:51:40;;;;;;;10.10;9.10;;;;;;;-3.58;79.02;98797.66;5002911;28;20331;-66
2021/03/07 07:54:08;;;;;;;11.60;9.70;;;;;;;-3.41;78.52;98789.25;5007458;28;20208;-66
2021/03/07 07:56:41;;;;;;;11.10;9.90;;;;;;;-3.33;77.86;98793.31;5006777;28;20232;-68
2021/03/07 07:59:10;;;;;;;12.70;10.93;;;;;;;-3.25;77.76;98796.47;5005542;28;20453;-67
2021/03/07 08:01:54;;;;;;;9.30;8.40;;;;;;;-2.87;74.28;98794.16;5009378;28;20584;-68
2021/03/07 08:04:37;;;;;;;8.80;7.90;;;;;;;-2.97;75.21;98791.06;5007716;28;20703;-67
2021/03/07 08:07:07;;;;;;;8.33;7.63;;;;;;;-2.74;73.81;98784.16;5003907;28;20715;-69
2021/03/07 08:09:41;;;;;;;9.60;8.23;;;;;;;-2.67;74.06;98785.59;5011051;28;20204;-69
2021/03/07 08:12:42;;;;;;;8.90;8.13;;;;;;;-2.48;73.24;98784.84;5004443;28;20304;-68
2021/03/07 08:15:41;;;;;;;8.50;7.70;;;;;;;-2.14;69.50;98790.41;4999285;28;20211;-67
2021/03/07 08:18:08;;;;;;;8.80;7.67;;;;;;;-2.07;69.83;98779.69;5007842;28;20303;-68
2021/03/07 08:20:58;;;;;;;10.43;9.30;;;;;;;-1.93;70.22;98788.66;5009621;28;20200;-65
2021/03/07 08:23:25;;;;;;;9.90;7.37;;;;;;;-1.77;68.89;98776.69;5006273;28;20212;-68
2021/03/07 08:26:02;;;;;;;7.70;6.43;;;;;;;-1.62;66.31;98774.34;5004943;28;20689;-66
2021/03/07 08:28:42;;;;;;;7.60;6.77;;;;;;;-1.74;67.85;98778.31;4997510;28;20228;-69
2021/03/07 08:31:35;;;;;;;7.70;6.90;;;;;;;-1.51;68.29;98772.09;5000428;28;20228;-69
2021/03/07 08:34:23;;;;;;;6.63;6.03;;;;;;;-1.23;65.72;98776.06;5002573;28;20209;-70
2021/03/07 08:36:59;;;;;;;7.53;6.93;;;;;;;-1.23;64.48;98768.25;5001330;28;20533;-69
2021/03/07 08:39:30;;;;;;;6.27;5.77;;;;;;;-1.07;64.96;98768.38;5007433;28;20212;-68
2021/03/07 08:41:59;;;;;;;7.23;6.50;;;;;;;-0.90;64.33;98753.72;5009507;28;20590;-67
2021/03/07 08:44:27;;;;;;;7.07;6.10;;;;;;;-0.61;62.86;98754.91;5007114;28;20684;-69
2021/03/07 08:46:55;;;;;;;8.33;7.07;;;;;;;-0.59;61.69;98757.47;5009326;28;20220;-66
2021/03/07 08:49:27;;;;;;;7.20;6.50;;;;;;;-0.44;60.41;98751.50;5007106;28;20208;-67
2021/03/07 08:52:00;;;;;;;7.33;6.70;;;;;;;-0.40;60.61;98751.34;5003380;28;20309;-67
2021/03/07 08:54:29;;;;;;;6.97;6.17;;;;;;;-0.32;60.66;98747.44;5007355;28;20207;-67
2021/03/07 08:56:57;;;;;;;6.63;6.13;;;;;;;-0.13;59.10;98745.69;5007485;28;20236;-67
2021/03/07 08:59:26;;;;;;;6.87;6.27;;;;;;;0.06;58.04;98745.56;5001139;28;20219;-69
2021/03/07 09:01:53;;;;;;;7.67;6.87;;;;;;;0.20;58.30;98744.88;5002461;28;20209;-67
2021/03/07 09:04:21;;;;;;;6.63;6.03;;;;;;;0.26;58.21;98744.53;5004137;28;20209;-66
2021/03/07 09:06:49;;;;;;;7.03;6.23;;;;;;;0.38;57.28;98738.72;5002695;28;20235;-68
2021/03/07 09:09:18;;;;;;;6.67;6.03;;;;;;;0.44;55.78;98734.91;4996605;28;20247;-69
2021/03/07 09:11:50;;;;;;;7.77;6.97;;;;;;;0.56;56.07;98725.59;5000900;28;20381;-67
2021/03/07 09:14:18;;;;;;;7.53;5.87;;;;;;;0.82;53.44;98728.56;5006679;28;20684;-66
2021/03/07 09:16:46;;;;;;;6.23;5.63;;;;;;;0.77;55.35;98727.97;5003546;28;20233;-69
2021/03/07 09:19:29;;;;;;;7.53;6.53;;;;;;;0.92;54.60;98718.44;5009278;28;20244;-68
2021/03/07 09:22:19;;;;;;;6.80;6.30;;;;;;;1.07;55.14;98716.75;5005594;28;20208;-68
2021/03/07 09:24:55;;;;;;;6.07;5.57;;;;;;;1.04;53.98;98715.16;5004026;28;20724;-68
2021/03/07 09:27:23;;;;;;;6.87;5.50;;;;;;;1.06;54.29;98712.44;5010906;28;20247;-66
2021/03/07 09:29:58;;;;;;;6.00;4.87;;;;;;;1.18;54.14;98710.94;5005560;28;20712;-69
2021/03/07 09:32:30;;;;;;;5.67;5.17;;;;;;;1.45;50.85;98708.50;5005379;28;20211;-69
2021/03/07 09:35:00;;;;;;;6.20;5.57;;;;;;;1.36;51.83;98696.84;5003993;28;20292;-68
2021/03/07 09:37:28;;;;;;;5.47;5.10;;;;;;;1.39;51.18;98691.44;5003626;28;20399;-67
2021/03/07 09:39:55;;;;;;;7.17;6.07;;;;;;;1.44;52.52;98691.16;5006909;28;20669;-68
2021/03/07 09:42:22;;;;;;;6.33;5.80;;;;;;;1.67;52.74;98700.25;5012837;28;20238;-66
2021/03/07 09:44:50;;;;;;;5.13;4.67;;;;;;;1.74;52.28;98698.13;5011082;28;20661;-67
2021/03/07 09:47:21;;;;;;;5.60;5.10;;;;;;;1.93;52.05;98694.44;5014220;28;20229;-67
2021/03/07 09:49:48;;;;;;;5.07;4.77;;;;;;;1.93;50.98;98695.25;5007707;28;20259;-69
2021/03/07 09:52:16;;;;;;;5.20;4.70;;;;;;;1.91;50.01;98680.63;5012824;28;20443;-68
2021/03/07 09:54:54;;;;;;;6.47;5.87;;;;;;;1.98;51.70;98681.94;5012297;28;20448;-68
2021/03/07 09:57:41;;;;;;;5.10;4.60;;;;;;;2.01;51.46;98679.94;5009433;28;20268;-68
2021/03/07 10:00:09;;;;;;;5.50;4.83;;;;;;;2.26;51.53;98675.84;5013603;28;20216;-68
2021/03/07 10:02:36;;;;;;;5.90;5.27;;;;;;;2.13;51.67;98674.94;5008929;28;20219;-67
2021/03/07 10:05:13;;;;;;;5.60;4.70;;;;;;;2.32;51.57;98669.41;5008367;28;20279;-68
2021/03/07 10:07:41;;;;;;;5.63;5.23;;;;;;;2.44;50.32;98673.00;5017818;28;20287;-68
2021/03/07 10:10:10;;;;;;;6.93;6.33;;;;;;;2.47;49.39;98667.63;5013931;28;20319;-69
2021/03/07 10:12:46;;;;;;;5.53;5.03;;;;;;;2.24;50.87;98666.41;5009650;28;20205;-68
2021/03/07 10:15:21;;;;;;;5.57;5.07;;;;;;;2.54;49.50;98663.66;5005152;28;20217;-69
2021/03/07 10:17:49;;;;;;;7.53;5.10;;;;;;;2.47;50.03;98657.16;5001020;28;20247;-69
2021/03/07 10:20:17;;;;;;;5.00;4.50;;;;;;;2.40;49.42;98650.59;5004661;28;20196;-69
2021/03/07 10:22:46;;;;;;;5.13;4.73;;;;;;;2.45;49.79;98641.53;4998419;28;20233;-69
2021/03/07 10:25:24;;;;;;;7.97;4.63;;;;;;;2.75;50.52;98637.06;4997172;28;20220;-69
2021/03/07 10:27:56;;;;;;;8.57;5.40;;;;;;;2.78;50.09;98642.09;4999015;28;20225;-68
2021/03/07 10:30:31;;;;;;;4.87;4.47;;;;;;;2.67;48.49;98636.72;4999970;28;20221;-69
2021/03/07 10:33:11;;;;;;;4.83;4.53;;;;;;;2.79;48.45;98633.31;4999287;28;20201;-69
2021/03/07 10:35:39;;;;;;;5.37;4.87;;;;;;;2.51;49.76;98624.63;4996293;28;20216;-69
2021/03/07 10:38:19;;;;;;;5.60;5.10;;;;;;;2.72;50.88;98608.47;5000627;28;20237;-68
2021/03/07 10:40:46;;;;;;;5.73;5.17;;;;;;;3.02;47.79;98610.84;5010166;28;20211;-69
2021/03/07 10:43:13;;;;;;;5.87;5.03;;;;;;;3.03;48.67;98612.56;5006388;28;20224;-71
2021/03/07 10:45:40;;;;;;;5.80;5.30;;;;;;;2.96;47.62;98606.03;5001879;28;20219;-69
2021/03/07 10:48:09;;;;;;;5.27;4.50;;;;;;;2.97;47.49;98612.13;4999479;28;20233;-69
2021/03/07 10:50:37;;;;;;;5.43;5.03;;;;;;;3.25;47.95;98612.91;5000032;28;20937;-69
2021/03/07 10:53:05;;;;;;;6.03;5.53;;;;;;;3.23;49.00;98607.78;5005083;28;20210;-69
2021/03/07 10:55:33;;;;;;;6.03;5.47;;;;;;;3.27;47.55;98604.00;5004930;28;20228;-66
2021/03/07 10:58:00;;;;;;;5.17;4.63;;;;;;;3.50;46.19;98598.16;5000914;28;20225;-67
2021/03/07 11:00:27;;;;;;;5.37;4.90;;;;;;;3.36;46.26;98599.06;4996629;28;20212;-67
2021/03/07 11:02:54;;;;;;;5.73;5.10;;;;;;;3.59;46.89;98593.13;5001756;28;20210;-67
2021/03/07 11:05:21;;;;;;;6.77;6.27;;;;;;;3.74;45.76;98591.25;5007590;28;20207;-68
2021/03/07 11:07:48;;;;;;;5.77;5.33;;;;;;;3.57;46.57;98595.00;5006445;28;20240;-68
2021/03/07 11:10:17;;;;;;;6.07;5.63;;;;;;;3.99;45.30;98586.94;5009698;28;20220;-69
2021/03/07 11:12:45;;;;;;;5.63;5.23;;;;;;;4.18;44.24;98577.75;5005347;28;20577;-66
2021/03/07 11:15:15;;;;;;;5.33;4.93;;;;;;;4.41;43.74;98573.47;5015617;28;20470;-67
2021/03/07 11:17:42;;;;;;;5.23;4.83;;;;;;;4.46;43.36;98575.78;5010289;28;20225;-68
2021/03/07 11:20:12;;;;;;;4.83;4.43;;;;;;;4.60;42.42;98565.09;5007671;28;20263;-67
2021/03/07 11:22:39;;;;;;;5.13;4.70;;;;;;;4.55;40.65;98555.91;5010489;28;20215;-67
2021/03/07 11:25:08;;;;;;;5.00;4.60;;;;;;;4.40;41.44;98552.59;5013158;28;20205;-68
2021/03/07 11:27:35;;;;;;;5.90;4.90;;;;;;;4.50;40.62;98550.97;5011290;28;20224;-69
2021/03/07 11:30:04;;;;;;;5.43;5.03;;;;;;;4.24;41.80;98542.38;5008264;28;20300;-68
2021/03/07 11:32:32;;;;;;;5.27;4.87;;;;;;;4.57;41.36;98533.81;5009652;28;20344;-69
2021/03/07 11:34:59;;;;;;;4.43;4.03;;;;;;;4.70;39.94;98536.38;5005751;28;20205;-67
2021/03/07 11:37:26;;;;;;;4.67;4.37;;;;;;;4.73;40.24;98533.53;5010205;28;20235;-68